Time;durP1;ratioP1;P1;durP2;ratioP2;P2;SDS_P1;SDS_P2;PMS_P1;PMS_P2;Temp;Humidity;BMP_temperature;BMP_pressure;BME280_temperature;BME280_humidity;BME280_pressure;Samples;Min_cycle;Max_cycle;Signal;HPM_P1;HPM_P2
2022/01/08 00:02:16;;;;;;;6.28;3.05;;;4.10;1.00;;;;;;5056943;28;20240;-79
2022/01/08 00:04:52;;;;;;;4.32;3.75;;;4.10;1.00;;;;;;5072746;28;20186;-79
2022/01/08 00:07:22;;;;;;;6.18;3.55;;;4.10;1.00;;;;;;5062885;28;20168;-79
2022/01/08 00:10:22;;;;;;;5.07;3.75;;;4.10;1.00;;;;;;5066880;28;20278;-79
2022/01/08 00:13:27;;;;;;;8.95;3.80;;;4.10;1.00;;;;;;5060950;28;20185;-79
2022/01/08 00:16:04;;;;;;;7.93;4.05;;;4.00;1.00;;;;;;5053447;28;20214;-79
2022/01/08 00:18:34;;;;;;;6.75;3.65;;;4.00;1.00;;;;;;5039319;28;20178;-77
2022/01/08 00:21:22;;;;;;;4.15;3.47;;;3.90;1.00;;;;;;5053553;28;20176;-77
2022/01/08 00:23:52;;;;;;;5.10;3.72;;;4.00;1.00;;;;;;5064930;28;20228;-77
2022/01/08 00:26:28;;;;;;;6.15;3.53;;;4.00;1.00;;;;;;5055292;28;20183;-76
2022/01/08 00:28:59;;;;;;;6.95;3.88;;;4.00;1.00;;;;;;5053416;28;20168;-77
2022/01/08 00:31:25;;;;;;;4.18;2.88;;;4.00;1.00;;;;;;5059445;28;20611;-78
2022/01/08 00:33:58;;;;;;;6.53;2.97;;;4.00;1.00;;;;;;5069331;28;20211;-77
2022/01/08 00:36:28;;;;;;;4.45;3.38;;;4.00;1.00;;;;;;5073244;28;20449;-77
2022/01/08 00:38:53;;;;;;;3.65;3.03;;;4.00;1.00;;;;;;5058647;28;20751;-77
2022/01/08 00:41:22;;;;;;;5.47;3.37;;;4.00;1.00;;;;;;5055969;28;20168;-77
2022/01/08 00:43:48;;;;;;;4.53;2.70;;;4.00;1.00;;;;;;5070617;28;20586;-77
2022/01/08 00:46:16;;;;;;;4.10;2.53;;;4.00;1.00;;;;;;5080676;28;20186;-77
2022/01/08 00:48:46;;;;;;;6.15;2.75;;;4.00;1.00;;;;;;5062260;28;20172;-77
2022/01/08 00:51:16;;;;;;;2.70;2.45;;;4.00;1.00;;;;;;5065848;28;20193;-77
2022/01/08 00:53:52;;;;;;;2.67;1.92;;;4.00;1.00;;;;;;5060970;28;20180;-77
2022/01/08 00:56:34;;;;;;;3.05;2.00;;;4.00;1.00;;;;;;5048735;28;20238;-77
2022/01/08 00:59:17;;;;;;;3.25;1.20;;;4.00;1.00;;;;;;5057379;28;20171;-77
2022/01/08 01:01:52;;;;;;;8.10;3.08;;;4.00;1.00;;;;;;5063553;28;20179;-77
2022/01/08 01:04:22;;;;;;;2.33;2.22;;;4.00;1.00;;;;;;5063713;28;20178;-79
2022/01/08 01:07:22;;;;;;;2.53;2.35;;;4.00;1.00;;;;;;5067579;28;20187;-79
2022/01/08 01:10:06;;;;;;;4.15;2.83;;;4.10;1.00;;;;;;5051729;28;20189;-79
2022/01/08 01:12:31;;;;;;;2.63;2.42;;;4.10;1.00;;;;;;5060961;28;20317;-79
2022/01/08 01:14:58;;;;;;;2.93;2.53;;;4.10;1.00;;;;;;5056531;28;20624;-79
2022/01/08 01:17:34;;;;;;;2.45;2.25;;;4.10;1.00;;;;;;5070072;28;20195;-79
2022/01/08 01:20:13;;;;;;;2.40;2.10;;;4.20;1.00;;;;;;5056656;28;20164;-79
2022/01/08 01:23:01;;;;;;;2.70;2.50;;;4.20;1.00;;;;;;5069900;28;20221;-79
2022/01/08 01:25:37;;;;;;;6.32;2.70;;;4.20;1.00;;;;;;5069898;28;20205;-79
2022/01/08 01:28:13;;;;;;;2.33;1.90;;;4.20;1.00;;;;;;5065583;28;20698;-80
2022/01/08 01:47:37;;;;;;;2.53;2.33;;;4.30;1.00;;;;;;5007948;28;20197;-77
2022/01/08 01:50:07;;;;;;;3.58;2.58;;;4.20;1.00;;;;;;4981118;28;20197;-79
2022/01/08 01:52:46;;;;;;;2.97;2.25;;;4.20;1.00;;;;;;5013135;28;20177;-79
2022/01/08 01:55:22;;;;;;;2.08;1.85;;;4.20;1.00;;;;;;5006076;28;20674;-79
2022/01/08 01:58:00;;;;;;;3.05;2.17;;;4.20;1.00;;;;;;5007190;28;20189;-79
2022/01/08 02:00:26;;;;;;;2.45;1.75;;;4.20;1.00;;;;;;4994340;28;20261;-79
2022/01/08 02:02:52;;;;;;;3.08;2.40;;;4.20;1.00;;;;;;4981057;28;20562;-80
2022/01/08 02:05:34;;;;;;;4.30;2.30;;;4.20;1.00;;;;;;5004683;28;20196;-76
2022/01/08 02:08:00;;;;;;;8.68;2.05;;;4.10;1.00;;;;;;5011976;28;20184;-77
2022/01/08 02:10:28;;;;;;;2.00;1.87;;;4.10;1.00;;;;;;5002388;28;20182;-76
2022/01/08 02:12:59;;;;;;;2.25;2.08;;;4.10;1.00;;;;;;4994111;28;20429;-77
2022/01/08 02:15:24;;;;;;;3.28;2.30;;;4.00;1.00;;;;;;5007013;28;20616;-77
2022/01/08 02:17:58;;;;;;;2.90;1.73;;;4.00;1.00;;;;;;5006031;28;20215;-77
2022/01/08 02:20:28;;;;;;;2.55;2.28;;;3.90;1.00;;;;;;5062345;28;20219;-76
2022/01/08 02:22:54;;;;;;;4.47;2.15;;;3.90;1.00;;;;;;5067781;28;20254;-76
2022/01/08 02:25:34;;;;;;;1.93;1.70;;;3.80;1.00;;;;;;5069188;28;20281;-76
2022/01/08 02:28:10;;;;;;;3.28;2.30;;;3.70;1.00;;;;;;5064876;28;20710;-76
2022/01/08 02:30:36;;;;;;;2.65;2.10;;;3.70;1.00;;;;;;5075370;28;20183;-76
2022/01/08 02:33:10;;;;;;;3.20;2.17;;;3.70;1.00;;;;;;5074092;28;20190;-76
2022/01/08 02:35:36;;;;;;;2.45;1.90;;;3.70;1.00;;;;;;5062224;28;20471;-76
2022/01/08 02:38:02;;;;;;;1.90;1.80;;;3.60;1.00;;;;;;5063003;28;20176;-76
2022/01/08 02:40:28;;;;;;;3.10;2.33;;;3.50;1.00;;;;;;5068392;28;20240;-76
2022/01/08 02:43:02;;;;;;;3.60;2.20;;;3.50;1.00;;;;;;5055176;28;20402;-76
2022/01/08 02:45:30;;;;;;;2.03;1.80;;;3.40;1.00;;;;;;5061639;28;20186;-76
2022/01/08 02:48:04;;;;;;;2.78;2.47;;;3.30;1.00;;;;;;5065327;28;20175;-76
2022/01/08 02:50:40;;;;;;;2.55;2.35;;;3.30;1.00;;;;;;5050104;28;20194;-77
2022/01/08 02:53:10;;;;;;;2.25;2.05;;;3.30;1.00;;;;;;5067983;28;20190;-76
2022/01/08 02:55:52;;;;;;;2.47;2.28;;;3.20;1.00;;;;;;5043549;28;20203;-76
2022/01/08 02:58:18;;;;;;;2.70;2.40;;;3.10;1.00;;;;;;5058443;28;20646;-76
2022/01/08 03:00:46;;;;;;;2.30;2.17;;;3.10;1.00;;;;;;5073097;28;20190;-76
2022/01/08 03:03:40;;;;;;;7.13;2.72;;;3.10;1.00;;;;;;5066541;28;20853;-76
2022/01/08 03:06:10;;;;;;;4.32;2.83;;;3.00;1.00;;;;;;5058860;28;20302;-76
2022/01/08 03:08:40;;;;;;;2.80;2.60;;;2.90;1.00;;;;;;5064481;28;20698;-76
2022/01/08 03:11:22;;;;;;;2.55;2.35;;;2.90;1.00;;;;;;5056843;28;20701;-76
2022/01/08 03:14:05;;;;;;;2.67;2.45;;;2.80;1.00;;;;;;5054816;28;20183;-76
2022/01/08 03:16:31;;;;;;;4.15;3.50;;;2.70;1.00;;;;;;5049984;28;20704;-76
2022/01/08 03:18:58;;;;;;;3.40;2.73;;;2.70;1.00;;;;;;5054412;28;20199;-76
2022/01/08 03:21:36;;;;;;;5.43;2.67;;;2.70;1.00;;;;;;5057871;28;20263;-78
2022/01/08 03:24:25;;;;;;;1.63;1.52;;;2.70;1.00;;;;;;5055358;28;20160;-79
2022/01/08 03:27:48;;;;;;;2.50;2.30;;;2.70;1.00;;;;;;5062951;28;20182;-78
2022/01/08 03:30:14;;;;;;;2.88;1.70;;;2.70;1.00;;;;;;5066480;28;20231;-79
2022/01/08 03:32:40;;;;;;;2.13;1.93;;;2.70;1.00;;;;;;5060346;28;20199;-78
2022/01/08 03:35:07;;;;;;;1.27;1.17;;;2.60;1.00;;;;;;5068864;28;20214;-77
2022/01/08 03:37:33;;;;;;;1.73;1.63;;;2.50;1.00;;;;;;5060736;28;20697;-76
2022/01/08 03:40:06;;;;;;;1.60;1.30;;;2.50;1.00;;;;;;5061962;28;20202;-76
2022/01/08 03:42:32;;;;;;;1.13;1.02;;;2.50;1.00;;;;;;5059335;28;20328;-77
2022/01/08 03:45:11;;;;;;;1.33;1.23;;;2.50;1.00;;;;;;5054818;28;20203;-76
2022/01/08 03:50:15;;;;;;;11.13;1.85;;;2.60;1.00;;;;;;5061123;28;20174;-76
2022/01/08 03:52:41;;;;;;;1.33;1.00;;;2.60;1.00;;;;;;5068426;28;20268;-76
2022/01/08 03:55:07;;;;;;;1.33;1.00;;;2.60;1.00;;;;;;5060142;28;20261;-76
2022/01/08 03:57:46;;;;;;;0.90;0.90;;;2.60;1.00;;;;;;5073919;28;20282;-76
2022/01/08 04:00:34;;;;;;;0.93;0.82;;;2.60;1.00;;;;;;5049562;28;20167;-76
2022/01/08 04:03:00;;;;;;;0.85;0.60;;;2.60;1.00;;;;;;5058047;28;20634;-76
2022/01/08 04:05:52;;;;;;;0.65;0.65;;;2.60;1.00;;;;;;5065716;28;20231;-78
2022/01/08 04:08:18;;;;;;;1.20;0.90;;;2.60;1.00;;;;;;5056602;28;20214;-78
2022/01/08 04:11:10;;;;;;;1.08;1.00;;;2.60;1.00;;;;;;5066983;28;20179;-78
2022/01/08 04:13:39;;;;;;;1.60;1.00;;;2.60;1.00;;;;;;5053365;28;20175;-78
2022/01/08 04:16:14;;;;;;;0.90;0.90;;;2.60;1.00;;;;;;5055642;28;20192;-79
2022/01/08 04:18:40;;;;;;;0.98;0.98;;;2.70;1.00;;;;;;5070864;28;20253;-78
2022/01/08 04:23:54;;;;;;;0.70;0.70;;;2.70;1.00;;;;;;5060241;28;20417;-76
2022/01/08 04:26:23;;;;;;;0.80;0.80;;;2.70;1.00;;;;;;5067818;28;20215;-76
2022/01/08 04:29:06;;;;;;;0.80;0.80;;;2.70;1.00;;;;;;5071119;28;20210;-76
2022/01/08 04:31:40;;;;;;;1.17;0.90;;;2.60;1.00;;;;;;5056313;28;20526;-76
2022/01/08 04:34:06;;;;;;;0.80;0.80;;;2.70;1.00;;;;;;5051254;28;20240;-76
2022/01/08 04:36:52;;;;;;;0.80;0.80;;;2.60;1.00;;;;;;5063076;28;20219;-79
2022/01/08 04:39:17;;;;;;;0.60;0.60;;;2.70;1.00;;;;;;5057503;28;20247;-78
2022/01/08 04:42:28;;;;;;;0.53;0.53;;;2.70;1.00;;;;;;5072863;28;20194;-79
2022/01/08 04:44:54;;;;;;;0.73;0.65;;;2.60;1.00;;;;;;5058728;28;20167;-78
2022/01/08 04:47:29;;;;;;;1.08;0.68;;;2.60;1.00;;;;;;5068702;28;20248;-78
2022/01/08 04:50:13;;;;;;;1.35;0.70;;;2.60;1.00;;;;;;5059865;28;20320;-78
2022/01/08 04:52:52;;;;;;;0.77;0.77;;;2.50;1.00;;;;;;5064893;28;20184;-78
2022/01/08 04:55:28;;;;;;;0.63;0.60;;;2.40;1.00;;;;;;5063785;28;20637;-80
2022/01/08 04:57:58;;;;;;;0.57;0.57;;;2.40;1.00;;;;;;5077139;28;20155;-79
2022/01/08 05:00:28;;;;;;;0.70;0.70;;;2.30;1.00;;;;;;5067405;28;20180;-79
2022/01/08 05:02:59;;;;;;;0.88;0.88;;;2.20;1.00;;;;;;5072079;28;20545;-79
2022/01/08 05:05:40;;;;;;;0.57;0.57;;;2.20;1.00;;;;;;5071713;28;20175;-79
2022/01/08 05:08:10;;;;;;;0.88;0.60;;;2.20;1.00;;;;;;5071566;28;20180;-78
2022/01/08 05:10:40;;;;;;;0.60;0.60;;;2.30;1.00;;;;;;5069742;28;20182;-78
2022/01/08 05:13:16;;;;;;;0.63;0.63;;;2.30;1.00;;;;;;5063927;28;20522;-79
2022/01/08 05:16:10;;;;;;;0.60;0.60;;;2.30;1.00;;;;;;5062678;28;20242;-79
2022/01/08 05:18:40;;;;;;;0.63;0.63;;;2.30;1.00;;;;;;5063821;28;20283;-78
2022/01/08 05:21:37;;;;;;;1.60;0.80;;;2.30;1.00;;;;;;5076674;28;20182;-78
2022/01/08 05:24:10;;;;;;;1.40;1.30;;;2.30;1.00;;;;;;5060633;28;20623;-78
2022/01/08 05:26:46;;;;;;;1.00;1.00;;;2.30;1.00;;;;;;5063659;28;20645;-78
2022/01/08 05:29:22;;;;;;;0.80;0.80;;;2.30;1.00;;;;;;5068785;28;20186;-78
2022/01/08 05:31:48;;;;;;;3.55;1.15;;;2.30;1.00;;;;;;5066128;28;20729;-78
2022/01/08 05:34:28;;;;;;;1.00;1.00;;;2.40;1.00;;;;;;5062764;28;20215;-78
2022/01/08 05:36:58;;;;;;;0.90;0.90;;;2.40;1.00;;;;;;5063486;28;20585;-78
2022/01/08 05:39:34;;;;;;;1.35;1.25;;;2.30;1.00;;;;;;5069459;28;20578;-78
2022/01/08 05:42:10;;;;;;;1.30;0.88;;;2.40;1.00;;;;;;5069615;28;20582;-78
2022/01/08 05:44:40;;;;;;;0.80;0.80;;;2.40;1.00;;;;;;5064462;28;20182;-80
2022/01/08 05:47:31;;;;;;;1.10;1.10;;;2.40;1.00;;;;;;5060322;28;20180;-78
2022/01/08 05:49:56;;;;;;;0.90;0.90;;;2.50;1.00;;;;;;5068051;28;20189;-78
2022/01/08 05:52:22;;;;;;;0.90;0.90;;;2.50;1.00;;;;;;5056659;28;20187;-78
2022/01/08 05:54:52;;;;;;;1.17;1.00;;;2.60;1.00;;;;;;5060468;28;20434;-78
2022/01/08 05:57:22;;;;;;;1.00;0.80;;;2.60;1.00;;;;;;5039512;28;20446;-78
2022/01/08 05:59:52;;;;;;;0.88;0.88;;;2.60;1.00;;;;;;5060010;28;20194;-78
2022/01/08 06:02:22;;;;;;;0.80;0.80;;;2.60;1.00;;;;;;5064037;28;20176;-78
2022/01/08 06:04:52;;;;;;;0.70;0.70;;;2.60;1.00;;;;;;5055614;28;20172;-78
2022/01/08 06:07:40;;;;;;;0.80;0.80;;;2.60;1.00;;;;;;5063712;28;20187;-79
2022/01/08 06:10:06;;;;;;;0.80;0.80;;;2.60;1.00;;;;;;5051700;28;20676;-79
2022/01/08 06:13:04;;;;;;;0.70;0.70;;;2.60;1.00;;;;;;5062221;28;20163;-79
2022/01/08 06:15:30;;;;;;;0.90;0.90;;;2.60;1.00;;;;;;5062780;28;20413;-79
2022/01/08 06:17:55;;;;;;;1.40;1.30;;;2.50;1.00;;;;;;5068575;28;20270;-79
2022/01/08 06:20:21;;;;;;;1.30;1.20;;;2.60;1.00;;;;;;5067756;28;20179;-78
2022/01/08 06:23:10;;;;;;;1.83;1.40;;;2.60;1.00;;;;;;5056378;28;20178;-78
2022/01/08 06:26:10;;;;;;;2.25;1.80;;;2.60;1.00;;;;;;5061195;28;20422;-78
2022/01/08 06:28:40;;;;;;;2.25;0.98;;;2.60;1.00;;;;;;5055322;28;20156;-78
2022/01/08 06:31:10;;;;;;;5.32;1.33;;;2.60;1.00;;;;;;5055169;28;20572;-78
2022/01/08 06:33:47;;;;;;;0.88;0.88;;;2.50;1.00;;;;;;5058648;28;20728;-79
2022/01/08 06:36:28;;;;;;;1.27;1.17;;;2.60;1.00;;;;;;5053291;28;20206;-79
2022/01/08 06:39:10;;;;;;;1.75;1.05;;;2.50;1.00;;;;;;5056986;28;20539;-79
2022/01/08 06:41:40;;;;;;;1.35;1.20;;;2.50;1.00;;;;;;5058540;28;20705;-78
2022/01/08 06:44:34;;;;;;;1.42;1.00;;;2.50;1.00;;;;;;5061875;28;20197;-79
2022/01/08 06:47:10;;;;;;;1.00;1.00;;;2.40;1.00;;;;;;5057112;28;20232;-80
2022/01/08 06:49:40;;;;;;;3.45;1.30;;;2.30;1.00;;;;;;5054832;28;20203;-78
2022/01/08 06:52:06;;;;;;;1.50;1.40;;;2.30;1.00;;;;;;5068115;28;20764;-76
2022/01/08 06:54:34;;;;;;;1.10;1.03;;;2.20;1.00;;;;;;5054679;28;20263;-76
2022/01/08 06:57:16;;;;;;;1.58;1.48;;;2.10;1.00;;;;;;5072964;28;20956;-76
2022/01/08 06:59:52;;;;;;;1.05;1.00;;;2.00;1.00;;;;;;5074792;28;20691;-76
2022/01/08 07:02:22;;;;;;;1.48;1.38;;;1.80;1.00;;;;;;5068725;28;20168;-76
2022/01/08 07:04:58;;;;;;;11.05;1.35;;;1.90;1.00;;;;;;5065930;28;20650;-77
2022/01/08 07:07:28;;;;;;;1.20;1.10;;;1.70;1.00;;;;;;5055137;28;20697;-75
2022/01/08 07:09:54;;;;;;;1.83;1.52;;;1.60;1.00;;;;;;5062624;28;20274;-75
2022/01/08 07:12:22;;;;;;;1.50;1.40;;;1.60;1.00;;;;;;5059876;28;20207;-76
2022/01/08 07:14:52;;;;;;;1.25;1.15;;;1.50;1.00;;;;;;5054335;28;20606;-76
2022/01/08 07:17:18;;;;;;;5.35;1.80;;;1.50;1.00;;;;;;5052977;28;20241;-75
2022/01/08 07:19:52;;;;;;;2.80;1.40;;;1.40;1.00;;;;;;5063120;28;20179;-75
2022/01/08 07:22:22;;;;;;;4.03;1.50;;;1.40;1.00;;;;;;5054231;28;20407;-74
2022/01/08 07:24:58;;;;;;;7.00;2.10;;;1.40;1.00;;;;;;5064895;28;20203;-74
2022/01/08 07:27:24;;;;;;;1.67;1.58;;;1.50;1.00;;;;;;5054194;28;20160;-74
2022/01/08 07:29:50;;;;;;;1.30;1.20;;;1.50;1.00;;;;;;5053132;28;20188;-74
2022/01/08 07:32:16;;;;;;;1.83;1.63;;;1.60;1.00;;;;;;5053904;28;20465;-75
2022/01/08 07:34:53;;;;;;;2.30;2.10;;;1.60;1.00;;;;;;5054184;28;20755;-76
2022/01/08 07:37:22;;;;;;;4.60;1.92;;;1.70;1.00;;;;;;5054264;28;20661;-76
2022/01/08 07:39:48;;;;;;;3.53;2.63;;;1.80;1.00;;;;;;5071175;28;20210;-76
2022/01/08 07:42:22;;;;;;;2.72;2.53;;;1.90;1.00;;;;;;5060534;28;20206;-78
2022/01/08 07:45:05;;;;;;;2.50;2.30;;;2.00;1.00;;;;;;5058080;28;20688;-77
2022/01/08 07:47:31;;;;;;;4.68;3.10;;;2.00;1.00;;;;;;5060522;28;20198;-74
2022/01/08 07:49:58;;;;;;;3.83;2.70;;;2.10;1.00;;;;;;5032787;28;20160;-75
2022/01/08 07:52:31;;;;;;;5.13;3.50;;;2.20;1.00;;;;;;5047373;28;20171;-74
2022/01/08 07:54:56;;;;;;;8.13;5.03;;;2.20;1.00;;;;;;5042419;28;20180;-76
2022/01/08 07:57:22;;;;;;;5.57;3.87;;;2.20;1.00;;;;;;5053453;28;20191;-76
2022/01/08 08:00:05;;;;;;;6.37;4.50;;;2.40;1.00;;;;;;5062122;28;20171;-77
2022/01/08 08:02:34;;;;;;;7.70;4.60;;;2.40;1.00;;;;;;5057570;28;20475;-76
2022/01/08 08:05:00;;;;;;;4.90;4.18;;;2.30;1.00;;;;;;5068853;28;20274;-77
2022/01/08 08:07:28;;;;;;;7.43;5.07;;;2.50;1.00;;;;;;5057679;28;20222;-77
2022/01/08 08:09:58;;;;;;;4.80;3.88;;;2.50;1.00;;;;;;5062020;28;20191;-75
2022/01/08 08:12:42;;;;;;;10.55;5.20;;;2.50;1.00;;;;;;5058590;28;20205;-75
2022/01/08 08:15:16;;;;;;;9.52;5.32;;;2.50;1.00;;;;;;5072803;28;20190;-76
2022/01/08 08:17:46;;;;;;;6.50;5.03;;;2.60;1.00;;;;;;5062429;28;20664;-75
2022/01/08 08:20:16;;;;;;;7.25;4.75;;;2.70;1.00;;;;;;5059615;28;20187;-77
2022/01/08 08:22:46;;;;;;;6.55;4.80;;;2.70;1.00;;;;;;5053847;28;20174;-78
2022/01/08 08:25:26;;;;;;;5.53;4.13;;;2.80;1.00;;;;;;5056669;28;20676;-79
2022/01/08 08:28:10;;;;;;;5.80;4.32;;;2.80;1.00;;;;;;5061366;28;20711;-79
2022/01/08 08:30:40;;;;;;;5.80;4.22;;;2.90;1.00;;;;;;5033538;28;20157;-76
2022/01/08 08:33:10;;;;;;;5.78;4.22;;;3.00;1.00;;;;;;5052627;28;20252;-76
2022/01/08 08:35:40;;;;;;;8.13;4.32;;;3.00;1.00;;;;;;5053396;28;20155;-78
2022/01/08 08:38:10;;;;;;;17.08;4.88;;;3.00;1.00;;;;;;5069396;28;20713;-77
2022/01/08 08:40:37;;;;;;;5.60;4.55;;;3.10;1.00;;;;;;5063525;28;20198;-76
2022/01/08 08:43:10;;;;;;;6.28;4.10;;;3.10;1.00;;;;;;5052224;28;20586;-77
2022/01/08 08:45:41;;;;;;;5.22;4.03;;;3.20;1.00;;;;;;5064271;28;20638;-79
2022/01/08 08:48:06;;;;;;;6.65;3.58;;;3.30;1.00;;;;;;5059851;28;20186;-77
2022/01/08 08:50:32;;;;;;;5.80;3.47;;;3.30;1.00;;;;;;5059521;28;20164;-77
2022/01/08 08:53:11;;;;;;;4.03;3.60;;;3.50;1.00;;;;;;5057271;28;20422;-77
2022/01/08 08:55:40;;;;;;;7.05;4.43;;;3.50;1.00;;;;;;5052779;28;20180;-77
2022/01/08 08:58:10;;;;;;;8.15;3.38;;;3.50;1.00;;;;;;5061119;28;20319;-77
2022/01/08 09:00:41;;;;;;;6.03;3.60;;;3.50;1.00;;;;;;5058399;28;20176;-77
2022/01/08 09:03:10;;;;;;;6.30;4.15;;;3.50;1.00;;;;;;5065069;28;20183;-77
2022/01/08 09:05:36;;;;;;;6.65;3.75;;;3.50;1.00;;;;;;5074256;28;20151;-78
2022/01/08 09:08:04;;;;;;;4.70;3.80;;;3.50;1.00;;;;;;5066047;28;20664;-77
2022/01/08 09:10:40;;;;;;;9.52;4.40;;;3.70;1.00;;;;;;5061328;28;20642;-75
2022/01/08 09:13:06;;;;;;;6.45;3.72;;;3.60;1.00;;;;;;5067761;28;20178;-75
2022/01/08 09:15:40;;;;;;;5.10;3.47;;;3.80;1.00;;;;;;5058755;28;20259;-75
2022/01/08 09:18:07;;;;;;;6.35;3.47;;;3.80;1.00;;;;;;5068777;28;20477;-75
2022/01/08 09:20:40;;;;;;;3.72;3.30;;;3.80;1.00;;;;;;5063233;28;20186;-75
2022/01/08 09:23:06;;;;;;;5.10;3.40;;;3.80;1.00;;;;;;5056481;28;20196;-76
2022/01/08 09:25:40;;;;;;;8.43;3.60;;;3.80;1.00;;;;;;5070237;28;20195;-78
2022/01/08 09:28:10;;;;;;;8.48;3.25;;;3.90;1.00;;;;;;5065618;28;20269;-78
2022/01/08 09:30:40;;;;;;;3.03;2.50;;;3.90;1.00;;;;;;5056565;28;20171;-77
2022/01/08 09:33:14;;;;;;;8.57;3.45;;;3.90;1.00;;;;;;5057889;28;20175;-77
2022/01/08 09:36:34;;;;;;;4.45;2.78;;;3.90;1.00;;;;;;5076093;28;20159;-77
2022/01/08 09:39:01;;;;;;;5.57;3.28;;;3.90;1.00;;;;;;5053574;28;20179;-76
2022/01/08 09:41:27;;;;;;;7.78;2.80;;;3.90;1.00;;;;;;5056465;28;20279;-76
2022/01/08 09:43:54;;;;;;;7.90;3.33;;;3.90;1.00;;;;;;5066620;28;20262;-76
2022/01/08 09:46:21;;;;;;;5.13;2.70;;;4.00;1.00;;;;;;5060861;28;20527;-76
2022/01/08 09:48:48;;;;;;;22.67;3.10;;;4.00;1.00;;;;;;5065717;28;20426;-75
2022/01/08 09:51:29;;;;;;;2.77;2.43;;;4.20;1.00;;;;;;5072220;28;20183;-76
2022/01/08 09:54:00;;;;;;;8.97;3.03;;;4.30;1.00;;;;;;5036865;28;20399;-77
2022/01/08 09:56:28;;;;;;;8.23;2.45;;;4.30;1.00;;;;;;5049944;28;20445;-77
2022/01/08 09:59:05;;;;;;;7.32;2.88;;;4.40;1.00;;;;;;5062468;28;20215;-77
2022/01/08 10:01:34;;;;;;;4.73;3.33;;;4.50;1.00;;;;;;5075510;28;20542;-78
2022/01/08 10:04:06;;;;;;;5.30;2.70;;;4.50;1.00;;;;;;5062436;28;20403;-78
2022/01/08 10:06:41;;;;;;;3.33;2.33;;;4.50;1.00;;;;;;5064339;28;20433;-77
2022/01/08 10:09:16;;;;;;;6.53;2.47;;;4.50;1.00;;;;;;5059776;28;20193;-77
2022/01/08 10:11:53;;;;;;;10.33;2.03;;;4.50;1.00;;;;;;5075669;28;20155;-80
2022/01/08 10:17:13;;;;;;;3.22;2.28;;;4.70;1.00;;;;;;5048305;28;20740;-81
2022/01/08 10:17:48;;;;;;;10.32;2.35;;;4.70;1.00;;;;;;5057007;28;20215;-80
2022/01/08 10:21:04;;;;;;;7.78;1.58;;;4.80;1.00;;;;;;5048226;28;20254;-80
2022/01/08 10:23:49;;;;;;;1.47;1.37;;;4.80;1.00;;;;;;5037681;28;20191;-77
2022/01/08 10:26:30;;;;;;;6.80;2.40;;;4.80;1.00;;;;;;5035354;28;20940;-78
2022/01/08 10:29:18;;;;;;;4.40;2.20;;;4.80;1.00;;;;;;5044133;28;20797;-78
2022/01/08 10:31:51;;;;;;;1.50;1.40;;;4.80;1.00;;;;;;5041069;28;20517;-78
2022/01/08 10:34:34;;;;;;;5.47;1.60;;;4.70;1.00;;;;;;5052673;28;20476;-78
2022/01/08 10:37:16;;;;;;;4.43;1.80;;;4.80;1.00;;;;;;5040837;28;20457;-77
2022/01/08 10:39:43;;;;;;;6.03;2.27;;;;;;;;;;5048168;28;20932;-76
2022/01/08 10:42:17;;;;;;;8.70;2.20;;;4.90;1.00;;;;;;5045378;28;20499;-78
2022/01/08 10:45:14;;;;;;;6.23;1.50;;;5.00;1.00;;;;;;5035572;28;20422;-77
2022/01/08 10:47:42;;;;;;;4.63;2.20;;;5.00;1.00;;;;;;5052425;28;20422;-77
2022/01/08 10:50:10;;;;;;;36.87;16.83;;;5.00;1.00;;;;;;5052082;28;20920;-76
2022/01/08 10:52:49;;;;;;;2.70;1.70;;;5.00;1.00;;;;;;5052388;28;20418;-77
2022/01/08 10:55:28;;;;;;;9.25;4.78;;;4.90;1.00;;;;;;5037968;28;20476;-76
2022/01/08 10:57:55;;;;;;;2.70;1.58;;;4.90;1.00;;;;;;5067451;28;20194;-76
2022/01/08 11:00:30;;;;;;;2.97;0.80;;;4.80;1.00;;;;;;5066123;28;20546;-76
2022/01/08 11:02:56;;;;;;;2.83;1.87;;;4.60;1.00;;;;;;5059544;28;20488;-76
2022/01/08 11:05:23;;;;;;;2.30;1.97;;;4.60;1.00;;;;;;5071878;28;20912;-76
2022/01/08 11:08:15;;;;;;;2.10;1.57;;;4.60;1.00;;;;;;5059236;28;20458;-76
2022/01/08 11:10:52;;;;;;;3.43;1.60;;;4.50;1.00;;;;;;5069585;28;20410;-77
2022/01/08 11:13:25;;;;;;;5.27;1.30;;;4.40;1.00;;;;;;5074063;28;20757;-76
2022/01/08 11:15:54;;;;;;;1.90;1.30;;;4.40;1.00;;;;;;5071531;28;20496;-77
2022/01/08 11:18:23;;;;;;;2.30;1.80;;;4.30;1.00;;;;;;5065246;28;20182;-76
2022/01/08 11:20:55;;;;;;;4.40;1.80;;;4.20;1.00;;;;;;5070769;28;20418;-78
2022/01/08 11:23:28;;;;;;;2.53;1.80;;;4.00;1.00;;;;;;5056551;28;20183;-76
2022/01/08 11:25:57;;;;;;;5.55;1.52;;;4.00;1.00;;;;;;5054831;28;20171;-76
2022/01/08 11:28:28;;;;;;;1.95;1.35;;;3.90;1.00;;;;;;5055287;28;20175;-77
2022/01/08 11:31:00;;;;;;;1.52;1.10;;;3.90;1.00;;;;;;5068100;28;20527;-77
2022/01/08 11:33:44;;;;;;;1.35;0.50;;;3.80;1.00;;;;;;5067242;28;20193;-77
2022/01/08 11:36:13;;;;;;;24.90;1.70;;;3.80;1.00;;;;;;5067170;28;20222;-77
2022/01/08 11:38:47;;;;;;;1.70;1.02;;;3.70;1.00;;;;;;5053960;28;20174;-77
2022/01/08 11:41:12;;;;;;;2.15;1.08;;;3.80;1.00;;;;;;5066626;28;20578;-76
2022/01/08 11:43:41;;;;;;;1.37;1.00;;;3.80;1.00;;;;;;5055075;28;20187;-77
2022/01/08 11:46:13;;;;;;;2.17;1.55;;;3.90;1.00;;;;;;5066600;28;20202;-76
2022/01/08 11:48:49;;;;;;;3.65;1.73;;;4.00;1.00;;;;;;5047383;28;20544;-76
2022/01/08 11:51:24;;;;;;;5.28;0.85;;;4.20;1.00;;;;;;5057490;28;20186;-76
2022/01/08 11:53:58;;;;;;;8.32;3.03;;;4.20;1.00;;;;;;5054177;28;20159;-76
2022/01/08 11:56:27;;;;;;;1.88;1.50;;;4.30;1.00;;;;;;5053835;28;20304;-76
2022/01/08 11:59:15;;;;;;;5.03;1.55;;;4.30;1.00;;;;;;5066266;28;20187;-76
2022/01/08 12:02:08;;;;;;;2.35;1.80;;;4.30;1.00;;;;;;5053318;28;20152;-76
2022/01/08 12:04:34;;;;;;;2.93;1.57;;;4.40;1.00;;;;;;5057328;28;20187;-76
2022/01/08 12:07:38;;;;;;;8.20;2.05;;;4.50;1.00;;;;;;5060063;28;20426;-76
2022/01/08 12:10:22;;;;;;;56.00;26.65;;;4.50;1.00;;;;;;5059065;28;20183;-75
2022/01/08 12:13:10;;;;;;;6.83;3.00;;;4.60;1.00;;;;;;5057899;28;20171;-76
2022/01/08 12:15:52;;;;;;;13.88;2.45;;;4.50;1.00;;;;;;5060254;28;20429;-75
2022/01/08 12:18:52;;;;;;;1.70;1.30;;;4.50;1.00;;;;;;5064822;28;20171;-76
2022/01/08 12:21:40;;;;;;;3.80;1.65;;;4.50;1.00;;;;;;5053138;28;20175;-75
2022/01/08 12:24:26;;;;;;;2.22;1.52;;;4.40;1.00;;;;;;5061715;28;20182;-76
2022/01/08 12:26:57;;;;;;;5.22;1.55;;;4.40;1.00;;;;;;5057096;28;20171;-76
2022/01/08 12:29:32;;;;;;;13.10;2.85;;;4.30;1.00;;;;;;5053706;28;20187;-75
2022/01/08 12:32:48;;;;;;;25.70;8.50;;;4.30;1.00;;;;;;5052234;28;20199;-76
2022/01/08 12:38:37;;;;;;;5.57;1.80;;;4.40;1.00;;;;;;5053055;28;20416;-77
2022/01/08 12:41:31;;;;;;;47.58;21.65;;;4.50;1.00;;;;;;5063739;28;20264;-77
2022/01/08 12:44:26;;;;;;;6.57;3.17;;;4.80;1.00;;;;;;5062509;28;20205;-75
2022/01/08 12:46:52;;;;;;;8.57;4.25;;;4.80;1.00;;;;;;5057287;28;20171;-75
2022/01/08 12:49:34;;;;;;;152.30;59.43;;;4.80;1.00;;;;;;5057097;28;20194;-77
2022/01/08 12:52:06;;;;;;;14.10;6.43;;;5.00;1.00;;;;;;5069242;28;20182;-76
2022/01/08 12:54:36;;;;;;;3.10;2.20;;;5.00;1.00;;;;;;5072451;28;20414;-76
2022/01/08 12:57:05;;;;;;;31.80;13.60;;;5.30;1.00;;;;;;5065701;28;20460;-76
2022/01/08 12:59:37;;;;;;;4.00;2.80;;;5.30;1.00;;;;;;5076994;28;20382;-77
2022/01/08 13:02:11;;;;;;;58.93;23.50;;;5.50;1.00;;;;;;5076929;28;20798;-77
2022/01/08 13:04:39;;;;;;;15.00;7.07;;;5.60;1.00;;;;;;5060975;28;20425;-76
2022/01/08 13:07:10;;;;;;;7.60;3.10;;;5.50;1.00;;;;;;5055697;28;20552;-77
2022/01/08 13:09:59;;;;;;;8.23;4.50;;;5.60;1.00;;;;;;5072490;28;20421;-77
2022/01/08 13:12:34;;;;;;;2.20;1.60;;;5.60;1.00;;;;;;5068579;28;20891;-77
2022/01/08 13:15:05;;;;;;;5.03;2.37;;;5.50;1.00;;;;;;5057298;28;20566;-76
2022/01/08 13:17:40;;;;;;;4.17;2.33;;;5.50;1.00;;;;;;5056703;28;20454;-76
2022/01/08 13:20:07;;;;;;;5.03;1.80;;;5.50;1.00;;;;;;5035442;28;20786;-76
2022/01/08 13:22:33;;;;;;;4.67;2.77;;;5.40;1.00;;;;;;5052584;28;20418;-76
2022/01/08 13:24:59;;;;;;;19.40;6.57;;;6.40;1.00;;;;;;5068955;28;20401;-76
2022/01/08 13:27:29;;;;;;;17.23;7.60;;;5.30;1.00;;;;;;5057737;28;20395;-77
2022/01/08 13:30:10;;;;;;;9.40;5.97;;;5.20;1.00;;;;;;5068206;28;20418;-77
2022/01/08 13:32:40;;;;;;;7.03;3.07;;;5.30;1.00;;;;;;5056426;28;20781;-78
2022/01/08 13:35:34;;;;;;;2.60;1.60;;;5.30;1.00;;;;;;5055899;28;20422;-77
2022/01/08 13:38:00;;;;;;;1.60;1.50;;;5.20;1.00;;;;;;5067022;28;20425;-76
2022/01/08 13:40:26;;;;;;;12.77;4.70;;;5.20;1.00;;;;;;5061606;28;20925;-76
2022/01/08 13:43:22;;;;;;;4.67;2.43;;;5.20;1.00;;;;;;5068919;28;20520;-77
2022/01/08 13:46:00;;;;;;;32.93;13.07;;;5.00;1.00;;;;;;5055987;28;20426;-77
2022/01/08 13:48:28;;;;;;;14.73;6.63;;;5.10;1.00;;;;;;5068148;28;20932;-77
2022/01/08 13:50:58;;;;;;;30.67;13.67;;;5.00;1.00;;;;;;5041112;28;20418;-77
2022/01/08 13:53:29;;;;;;;20.67;9.93;;;5.00;1.00;;;;;;5056853;28;20382;-76
2022/01/08 13:56:02;;;;;;;6.77;2.50;;;5.00;1.00;;;;;;5073185;28;20924;-76
2022/01/08 13:58:30;;;;;;;10.77;4.10;;;5.10;1.00;;;;;;5055851;28;20506;-76
2022/01/08 14:01:06;;;;;;;14.17;4.50;;;5.00;1.00;;;;;;5055577;28;20489;-76
2022/01/08 14:03:46;;;;;;;11.37;5.33;;;5.00;1.00;;;;;;5067797;28;20950;-77
2022/01/08 14:06:29;;;;;;;2.20;1.63;;;4.90;1.00;;;;;;5049971;28;20766;-77
2022/01/08 14:09:00;;;;;;;26.83;10.73;;;4.90;1.00;;;;;;5072862;28;20812;-76
2022/01/08 14:11:35;;;;;;;4.73;2.60;;;5.00;1.00;;;;;;5056186;28;20410;-76
2022/01/08 14:14:02;;;;;;;6.75;2.30;;;4.90;1.00;;;;;;5073955;28;20750;-77